createdAt,value
2018-12-26T00:03:37.682Z,9.77
2018-12-26T00:06:41.356Z,9.57
2018-12-26T00:09:45.098Z,10.17
2018-12-26T00:12:49.053Z,9.43
2018-12-26T00:15:53.159Z,8.00
2018-12-26T00:18:57.770Z,8.67
2018-12-26T00:25:24.129Z,6.90
2018-12-26T00:28:28.668Z,7.10
2018-12-26T00:31:52.284Z,6.53
2018-12-26T00:34:56.424Z,6.97
2018-12-26T00:38:00.584Z,6.20
2018-12-26T00:41:04.619Z,5.57
2018-12-26T00:44:08.624Z,5.47
2018-12-26T00:47:12.909Z,4.93
2018-12-26T00:53:25.898Z,4.93
2018-12-26T00:56:29.535Z,5.03
2018-12-26T00:59:52.666Z,4.47
2018-12-26T01:02:56.837Z,4.47
2018-12-26T01:06:00.940Z,4.40
2018-12-26T01:09:44.614Z,3.93
2018-12-26T01:12:48.557Z,3.97
2018-12-26T01:15:52.521Z,3.60
2018-12-26T01:18:56.336Z,3.57
2018-12-26T01:22:00.017Z,3.67
2018-12-26T01:25:04.020Z,3.33
2018-12-26T01:28:08.009Z,3.27
2018-12-26T01:31:12.294Z,3.47
2018-12-26T01:34:16.192Z,2.90
2018-12-26T01:37:20.595Z,2.93
2018-12-26T01:40:24.897Z,3.00
2018-12-26T01:43:28.990Z,3.00
2018-12-26T01:46:32.774Z,2.57
2018-12-26T01:49:36.665Z,2.63
2018-12-26T01:52:40.584Z,2.63
2018-12-26T01:55:44.285Z,2.40
2018-12-26T01:58:48.563Z,2.30
2018-12-26T02:01:52.601Z,2.40
2018-12-26T02:04:56.258Z,1.97
2018-12-26T02:11:10.692Z,2.00
2018-12-26T02:14:14.989Z,2.20
2018-12-26T02:17:18.678Z,2.20
2018-12-26T02:23:45.295Z,2.50
2018-12-26T02:26:49.195Z,2.47
2018-12-26T02:29:53.084Z,2.00
2018-12-26T02:32:57.082Z,2.20
2018-12-26T02:36:20.721Z,2.00
2018-12-26T02:39:24.333Z,1.87
2018-12-26T02:42:28.724Z,2.13
2018-12-26T02:45:51.577Z,2.00
2018-12-26T02:48:55.461Z,2.10
2018-12-26T02:52:18.701Z,1.90
2018-12-26T02:55:41.594Z,1.80
2018-12-26T02:58:45.588Z,1.90
2018-12-26T03:01:49.584Z,1.90
2018-12-26T03:04:53.214Z,2.00
2018-12-26T03:07:57.170Z,1.60
2018-12-26T03:11:00.765Z,1.80
2018-12-26T03:14:04.648Z,1.97
2018-12-26T03:17:08.272Z,2.00
2018-12-26T03:23:21.653Z,2.03
2018-12-26T03:26:25.628Z,1.70
2018-12-26T03:29:29.260Z,1.80
2018-12-26T03:32:32.880Z,1.60
2018-12-26T03:35:36.923Z,1.53
2018-12-26T03:38:40.859Z,1.63
2018-12-26T03:41:44.579Z,1.77
2018-12-26T03:45:28.492Z,1.43
2018-12-26T03:49:12.195Z,1.50
2018-12-26T03:52:16.416Z,1.47
2018-12-26T03:55:20.653Z,1.67
2018-12-26T03:58:24.350Z,1.60
2018-12-26T04:01:28.052Z,1.50
2018-12-26T04:04:32.002Z,1.43
2018-12-26T04:07:54.850Z,1.30
2018-12-26T04:10:58.496Z,1.40
2018-12-26T04:14:02.379Z,1.60
2018-12-26T04:17:06.386Z,1.50
2018-12-26T04:20:10.280Z,1.43
2018-12-26T04:23:33.126Z,1.70
2018-12-26T04:26:37.326Z,1.40
2018-12-26T04:29:41.499Z,1.40
2018-12-26T04:33:04.362Z,1.23
2018-12-26T04:36:08.330Z,1.20
2018-12-26T04:39:12.319Z,1.60
2018-12-26T04:42:16.638Z,1.20
2018-12-26T04:45:20.547Z,1.10
2018-12-26T04:48:24.825Z,1.10
2018-12-26T04:54:38.135Z,1.10
2018-12-26T04:57:42.432Z,1.40
2018-12-26T05:00:46.837Z,1.20
2018-12-26T05:03:50.520Z,1.17
2018-12-26T05:06:54.142Z,1.07
2018-12-26T05:09:58.092Z,1.00
2018-12-26T05:13:21.226Z,1.30
2018-12-26T05:16:25.541Z,1.13
2018-12-26T05:19:29.135Z,1.20
2018-12-26T05:22:33.526Z,1.00
2018-12-26T05:25:37.856Z,1.13
2018-12-26T05:28:42.037Z,1.13
2018-12-26T05:31:46.135Z,1.00
2018-12-26T05:34:50.339Z,1.30
2018-12-26T05:37:54.332Z,1.87
2018-12-26T05:40:58.888Z,1.03
2018-12-26T05:44:02.558Z,22.53
2018-12-26T05:47:06.231Z,13.07
2018-12-26T05:50:10.339Z,11.77
2018-12-26T05:56:43.201Z,9.43
2018-12-26T05:59:47.141Z,8.87
2018-12-26T06:02:51.163Z,7.87
2018-12-26T06:05:54.779Z,7.27
2018-12-26T06:08:59.047Z,6.83
2018-12-26T06:15:12.211Z,5.37
2018-12-26T06:18:16.464Z,5.20
2018-12-26T06:21:20.472Z,5.50
2018-12-26T06:24:24.099Z,4.80
2018-12-26T06:27:27.837Z,4.70
2018-12-26T06:30:31.440Z,4.97
2018-12-26T06:33:35.316Z,4.60
2018-12-26T06:40:01.662Z,3.77
2018-12-26T06:43:05.323Z,3.80
2018-12-26T06:46:09.537Z,4.10
2018-12-26T06:49:13.634Z,3.90
2018-12-26T06:52:36.715Z,3.80
2018-12-26T06:55:41.769Z,3.60
2018-12-26T06:58:46.796Z,3.50
2018-12-26T07:01:50.384Z,3.60
2018-12-26T07:04:54.339Z,3.40
2018-12-26T07:07:57.974Z,3.47
2018-12-26T07:11:01.600Z,3.03
2018-12-26T07:14:05.319Z,3.53
2018-12-26T07:17:08.935Z,3.20
2018-12-26T07:20:12.912Z,3.10
2018-12-26T07:23:24.175Z,3.20
2018-12-26T07:26:28.580Z,3.00
2018-12-26T07:29:32.337Z,2.97
2018-12-26T07:32:36.042Z,3.20
2018-12-26T07:35:39.661Z,3.00
2018-12-26T07:38:43.287Z,2.63
2018-12-26T07:41:47.210Z,2.90
2018-12-26T07:44:50.828Z,3.37
2018-12-26T07:47:54.807Z,2.90
2018-12-26T07:54:08.530Z,2.77
2018-12-26T07:57:12.248Z,3.30
2018-12-26T08:00:16.334Z,2.83
2018-12-26T08:03:20.333Z,2.67
2018-12-26T08:06:24.411Z,2.40
2018-12-26T08:09:28.385Z,56.60
2018-12-26T08:12:32.106Z,78.30
2018-12-26T08:15:36.132Z,104.20
2018-12-26T08:18:40.025Z,60.87
2018-12-26T08:22:03.174Z,48.30
2018-12-26T08:25:06.814Z,41.93
2018-12-26T08:28:11.115Z,35.17
2018-12-26T08:31:15.111Z,31.40
2018-12-26T08:34:19.109Z,26.67
2018-12-26T08:37:22.789Z,25.03
2018-12-26T08:40:26.431Z,21.20
2018-12-26T08:43:30.094Z,19.83
2018-12-26T08:46:53.048Z,19.13
2018-12-26T08:50:16.235Z,17.70
2018-12-26T08:53:20.778Z,16.67
2018-12-26T08:56:24.749Z,16.63
2018-12-26T08:59:28.725Z,15.63
2018-12-26T09:02:32.843Z,14.37
2018-12-26T09:05:37.147Z,14.00
2018-12-26T09:08:41.127Z,14.37
2018-12-26T09:12:03.827Z,12.37
2018-12-26T09:18:30.562Z,11.47
2018-12-26T09:21:34.671Z,10.23
2018-12-26T09:24:38.743Z,9.43
2018-12-26T09:27:42.639Z,8.33
2018-12-26T09:30:46.778Z,8.93
2018-12-26T09:33:50.932Z,8.10
2018-12-26T09:36:54.715Z,7.60
2018-12-26T09:39:58.636Z,7.30
2018-12-26T09:43:02.938Z,7.23
2018-12-26T09:46:06.934Z,6.97
2018-12-26T09:49:30.369Z,4.43
2018-12-26T09:52:34.078Z,3.70
2018-12-26T09:55:38.160Z,3.57
2018-12-26T10:01:50.980Z,3.03
2018-12-26T10:04:55.752Z,2.80
2018-12-26T10:08:19.110Z,2.50
2018-12-26T10:11:23.754Z,2.47
2018-12-26T10:14:46.916Z,2.20
2018-12-26T10:17:51.384Z,2.17
2018-12-26T10:20:56.084Z,1.70
2018-12-26T10:24:00.092Z,1.83
2018-12-26T10:27:04.918Z,2.03
2018-12-26T10:30:28.277Z,1.90
2018-12-26T10:33:32.375Z,2.17
2018-12-26T10:36:38.020Z,2.30
2018-12-26T10:39:42.972Z,2.37
2018-12-26T10:42:46.802Z,2.40
2018-12-26T10:45:50.761Z,2.80
2018-12-26T10:48:55.283Z,2.20
2018-12-26T10:51:59.086Z,2.33
2018-12-26T10:55:02.775Z,2.30
2018-12-26T10:58:08.207Z,2.40
2018-12-26T11:01:12.408Z,2.10
2018-12-26T11:04:16.606Z,2.50
2018-12-26T11:07:20.605Z,2.20
2018-12-26T11:10:24.819Z,2.20
2018-12-26T11:13:31.956Z,2.03
2018-12-26T11:16:36.382Z,2.20
2018-12-26T11:19:41.068Z,2.20
2018-12-26T11:22:45.050Z,1.87
2018-12-26T11:25:49.351Z,1.77
2018-12-26T11:28:54.082Z,1.90
2018-12-26T11:31:58.008Z,2.13
2018-12-26T11:35:02.058Z,1.90
2018-12-26T11:38:06.602Z,1.90
2018-12-26T11:41:10.361Z,2.17
2018-12-26T11:44:14.418Z,2.20
2018-12-26T11:47:19.317Z,2.00
2018-12-26T11:50:22.960Z,2.10
2018-12-26T11:53:46.380Z,2.00
2018-12-26T11:56:51.217Z,1.97
2018-12-26T12:06:16.671Z,2.07
2018-12-26T12:12:43.514Z,1.70
2018-12-26T12:15:47.572Z,2.00
2018-12-26T12:19:10.770Z,2.20
2018-12-26T12:22:15.135Z,2.10
2018-12-26T12:25:19.089Z,1.70
2018-12-26T12:28:42.191Z,1.77
2018-12-26T12:31:46.406Z,1.70
2018-12-26T12:34:50.615Z,1.77
2018-12-26T12:37:55.304Z,1.90
2018-12-26T12:44:22.636Z,2.23
2018-12-26T12:47:26.721Z,2.10
2018-12-26T12:50:30.599Z,1.97
2018-12-26T12:53:34.374Z,2.10
2018-12-26T12:56:57.634Z,1.90
2018-12-26T13:00:01.952Z,2.27
2018-12-26T13:03:06.151Z,2.47
2018-12-26T13:06:10.247Z,2.07
2018-12-26T13:09:14.553Z,2.07
2018-12-26T13:12:18.962Z,2.30
2018-12-26T13:15:22.958Z,2.53
2018-12-26T13:18:27.254Z,2.93
2018-12-26T13:21:31.579Z,2.47
2018-12-26T13:24:35.548Z,2.13
2018-12-26T13:27:39.687Z,2.53
2018-12-26T13:30:43.899Z,2.30
2018-12-26T13:33:48.325Z,2.57
2018-12-26T13:36:52.350Z,2.40
2018-12-26T13:39:57.028Z,2.90
2018-12-26T13:43:00.756Z,2.50
2018-12-26T13:46:23.884Z,2.50
2018-12-26T13:49:27.793Z,2.40
2018-12-26T13:52:31.555Z,3.00
2018-12-26T13:59:17.948Z,3.17
2018-12-26T14:02:22.533Z,2.70
2018-12-26T14:05:27.446Z,2.83
2018-12-26T14:08:31.575Z,3.20
2018-12-26T14:11:55.021Z,3.00
2018-12-26T14:14:59.307Z,3.10
2018-12-26T14:18:03.625Z,3.13
2018-12-26T14:21:07.295Z,3.20
2018-12-26T14:24:30.178Z,3.07
2018-12-26T14:27:34.168Z,3.03
2018-12-26T14:34:08.832Z,3.23
2018-12-26T14:37:12.814Z,3.30
2018-12-26T14:40:16.947Z,3.30
2018-12-26T14:43:21.275Z,3.07
2018-12-26T14:46:25.069Z,3.07
2018-12-26T14:49:48.557Z,2.80
2018-12-26T14:53:11.806Z,3.10
2018-12-26T14:56:15.776Z,2.87
2018-12-26T14:59:32.105Z,2.80
2018-12-26T15:02:35.841Z,2.83
2018-12-26T15:05:39.493Z,3.20
2018-12-26T15:08:43.835Z,2.80
2018-12-26T15:11:48.490Z,2.97
2018-12-26T15:15:11.682Z,2.77
2018-12-26T15:18:15.391Z,2.77
2018-12-26T15:21:38.722Z,2.70
2018-12-26T15:25:01.581Z,3.30
2018-12-26T15:28:05.644Z,2.83
2018-12-26T15:31:09.827Z,3.57
2018-12-26T15:34:32.762Z,3.60
2018-12-26T15:37:36.667Z,3.53
2018-12-26T15:40:41.437Z,3.30
2018-12-26T15:43:45.885Z,3.47
2018-12-26T15:47:09.100Z,4.00
2018-12-26T15:50:13.094Z,4.30
2018-12-26T15:53:16.990Z,4.10
2018-12-26T15:56:39.904Z,3.80
2018-12-26T15:59:43.630Z,3.47
2018-12-26T16:02:47.907Z,3.67
2018-12-26T16:05:51.596Z,3.87
2018-12-26T16:08:55.288Z,3.80
2018-12-26T16:11:59.377Z,3.67
2018-12-26T16:15:22.061Z,3.97
2018-12-26T16:18:26.019Z,3.60
2018-12-26T16:21:29.693Z,3.77
2018-12-26T16:24:33.670Z,3.40
2018-12-26T16:27:37.820Z,3.57
2018-12-26T16:30:46.077Z,3.63
2018-12-26T16:33:46.922Z,4.20
2018-12-26T16:36:50.882Z,3.80
2018-12-26T16:39:54.843Z,3.83
2018-12-26T16:42:58.713Z,4.03
2018-12-26T16:46:21.625Z,4.17
2018-12-26T16:49:25.460Z,4.20
2018-12-26T16:52:29.614Z,4.67
2018-12-26T16:55:52.820Z,4.67
2018-12-26T16:58:56.944Z,4.80
2018-12-26T17:02:01.256Z,5.10
2018-12-26T17:05:24.275Z,5.00
2018-12-26T17:08:28.064Z,4.93
2018-12-26T17:11:33.366Z,5.40
2018-12-26T17:14:37.371Z,5.67
2018-12-26T17:17:41.378Z,5.07
2018-12-26T17:20:45.597Z,16.40
2018-12-26T17:27:19.829Z,15.43
2018-12-26T17:30:24.419Z,12.33
2018-12-26T17:33:48.017Z,10.70
2018-12-26T17:36:52.022Z,9.73
2018-12-26T17:39:55.777Z,9.10
2018-12-26T17:43:19.001Z,9.43
2018-12-26T17:46:24.796Z,7.87
2018-12-26T17:49:47.749Z,7.83
2018-12-26T17:52:51.794Z,7.63
2018-12-26T17:56:34.029Z,7.40
2018-12-26T17:59:49.733Z,7.13
2018-12-26T18:02:53.727Z,6.00
2018-12-26T18:06:16.607Z,5.90
2018-12-26T18:09:44.290Z,4.90
2018-12-26T18:12:48.250Z,5.73
2018-12-26T18:15:52.379Z,5.67
2018-12-26T18:19:15.525Z,5.80
2018-12-26T18:22:19.898Z,4.83
2018-12-26T18:25:23.777Z,5.10
2018-12-26T18:28:46.759Z,5.73
2018-12-26T18:35:42.474Z,5.10
2018-12-26T18:38:46.481Z,4.97
2018-12-26T18:41:50.276Z,5.43
2018-12-26T18:44:54.608Z,5.00
2018-12-26T18:47:58.393Z,5.47
2018-12-26T18:51:21.392Z,5.60
2018-12-26T18:54:25.497Z,5.20
2018-12-26T18:57:29.185Z,15.20
2018-12-26T19:00:33.341Z,17.53
2018-12-26T19:03:37.747Z,13.90
2018-12-26T19:06:42.159Z,12.60
2018-12-26T19:09:46.436Z,11.40
2018-12-26T19:12:50.208Z,10.37
2018-12-26T19:16:13.223Z,9.67
2018-12-26T19:19:17.055Z,8.80
2018-12-26T19:22:23.937Z,8.03
2018-12-26T19:25:28.159Z,7.40
2018-12-26T19:28:31.915Z,7.20
2018-12-26T19:31:39.726Z,7.13
2018-12-26T19:34:42.237Z,6.47
2018-12-26T19:37:46.333Z,6.10
2018-12-26T19:40:50.495Z,6.00
2018-12-26T19:43:55.161Z,9.73
2018-12-26T19:46:59.557Z,72.37
2018-12-26T19:50:05.249Z,76.97
2018-12-26T19:53:28.002Z,63.00
2018-12-26T19:56:32.347Z,55.83
2018-12-26T19:59:36.561Z,48.50
2018-12-26T20:02:40.625Z,41.33
2018-12-26T20:05:47.767Z,36.43
2018-12-26T20:08:51.876Z,32.67
2018-12-26T20:12:01.337Z,29.43
2018-12-26T20:15:05.452Z,24.73
2018-12-26T20:18:09.633Z,23.00
2018-12-26T20:21:13.315Z,20.63
2018-12-26T20:24:16.979Z,18.50
2018-12-26T20:27:20.663Z,12.13
2018-12-26T20:30:24.547Z,10.53
2018-12-26T20:33:28.518Z,10.00
2018-12-26T20:36:41.133Z,10.87
2018-12-26T20:39:44.914Z,9.20
2018-12-26T20:42:48.686Z,8.60
2018-12-26T20:45:52.326Z,7.30
2018-12-26T20:48:56.868Z,6.57
2018-12-26T20:52:00.796Z,6.33
2018-12-26T20:55:23.968Z,5.53
2018-12-26T20:58:28.764Z,5.20
2018-12-26T21:01:32.875Z,4.70
2018-12-26T21:04:36.979Z,4.60
2018-12-26T21:07:40.974Z,4.10
2018-12-26T21:10:44.918Z,4.10
2018-12-26T21:13:48.969Z,4.30
2018-12-26T21:16:55.077Z,4.00
2018-12-26T21:19:58.378Z,4.37
2018-12-26T21:23:02.579Z,3.33
2018-12-26T21:26:06.552Z,3.23
2018-12-26T21:32:33.651Z,3.60
2018-12-26T21:35:37.444Z,3.10
2018-12-26T21:38:41.230Z,3.20
2018-12-26T21:41:45.081Z,3.47
2018-12-26T21:44:49.467Z,3.57
2018-12-26T21:47:53.568Z,3.23
2018-12-26T21:50:58.192Z,3.63
2018-12-26T21:54:01.949Z,3.83
2018-12-26T22:00:36.547Z,3.70
2018-12-26T22:03:40.248Z,3.43
2018-12-26T22:06:44.169Z,3.53
2018-12-26T22:09:48.149Z,3.40
2018-12-26T22:12:52.222Z,3.50
2018-12-26T22:15:56.635Z,3.23
2018-12-26T22:19:00.440Z,4.10
2018-12-26T22:22:04.185Z,13.80
2018-12-26T22:25:27.602Z,14.73
2018-12-26T22:28:31.540Z,15.27
2018-12-26T22:31:36.223Z,14.67
2018-12-26T22:34:59.518Z,13.63
2018-12-26T22:38:03.561Z,10.93
2018-12-26T22:41:07.294Z,10.60
2018-12-26T22:44:11.269Z,9.80
2018-12-26T22:47:15.064Z,8.73
2018-12-26T22:50:19.040Z,8.17
2018-12-26T22:53:23.359Z,6.97
2018-12-26T22:56:27.680Z,6.23
2018-12-26T22:59:31.460Z,47.93
2018-12-26T23:02:54.908Z,50.23
2018-12-26T23:06:17.767Z,35.23
2018-12-26T23:09:22.045Z,33.10
2018-12-26T23:12:25.745Z,30.53
2018-12-26T23:15:29.752Z,29.77
2018-12-26T23:18:33.477Z,26.20
2018-12-26T23:21:56.864Z,24.83
2018-12-26T23:25:00.900Z,23.47
2018-12-26T23:28:23.821Z,20.07
2018-12-26T23:31:27.734Z,18.60
2018-12-26T23:34:51.470Z,18.57
2018-12-26T23:37:55.481Z,19.03
2018-12-26T23:40:59.500Z,16.33
2018-12-26T23:44:03.284Z,16.43
2018-12-26T23:47:07.284Z,15.60
2018-12-26T23:50:11.336Z,15.47
2018-12-26T23:53:14.962Z,13.87
2018-12-26T23:56:19.078Z,14.13
2018-12-26T23:59:23.378Z,13.27
